Time;durP1;ratioP1;P1;durP2;ratioP2;P2;SDS_P1;SDS_P2;PMS_P1;PMS_P2;Temp;Humidity;BMP_temperature;BMP_pressure;BME280_temperature;BME280_humidity;BME280_pressure;Samples;Min_cycle;Max_cycle;Signal;HPM_P1;HPM_P2
2022/05/07 00:02:20;;;;;;;;;;;25.10;40.90;;;;;;5018745;28;19925;-71
2022/05/07 00:04:47;;;;;;;;;;;25.10;41.00;;;;;;5018960;28;19930;-71
2022/05/07 00:07:14;;;;;;;;;;;25.10;41.00;;;;;;5018934;28;19936;-71
2022/05/07 00:09:41;;;;;;;;;;;25.10;41.00;;;;;;5018822;28;19926;-71
2022/05/07 00:12:08;;;;;;;;;;;25.10;41.00;;;;;;5018648;28;19932;-71
2022/05/07 00:14:35;;;;;;;;;;;25.10;41.00;;;;;;5018384;28;20341;-71
2022/05/07 00:19:50;;;;;;;;;;;25.00;41.00;;;;;;5018650;28;19961;-71
2022/05/07 00:22:17;;;;;;;;;;;25.10;41.00;;;;;;5018568;28;19929;-71
2022/05/07 00:24:44;;;;;;;;;;;25.00;41.00;;;;;;5018245;28;20389;-71
2022/05/07 00:27:13;;;;;;;;;;;25.00;41.00;;;;;;5018472;28;19929;-71
2022/05/07 00:29:40;;;;;;;;;;;25.00;41.00;;;;;;5018335;28;19925;-71
2022/05/07 00:32:08;;;;;;;;;;;25.00;41.00;;;;;;5018513;28;19926;-71
2022/05/07 00:34:36;;;;;;;;;;;25.10;41.10;;;;;;5018206;28;19925;-71
2022/05/07 00:37:03;;;;;;;;;;;25.10;41.00;;;;;;5001145;28;19926;-71
2022/05/07 00:39:30;;;;;;;;;;;25.00;41.00;;;;;;5017842;28;20396;-71
2022/05/07 00:42:01;;;;;;;;;;;25.10;41.00;;;;;;5018180;28;19932;-71
2022/05/07 00:44:28;;;;;;;;;;;25.00;41.00;;;;;;5018396;28;19930;-70
2022/05/07 00:46:59;;;;;;;;;;;25.10;41.10;;;;;;5018077;28;19933;-71
2022/05/07 00:49:25;;;;;;;;;;;25.10;41.00;;;;;;5017995;28;19953;-71
2022/05/07 00:51:52;;;;;;;;;;;25.10;41.00;;;;;;5018097;28;20447;-71
2022/05/07 00:54:21;;;;;;;;;;;25.00;41.00;;;;;;5017892;28;20420;-71
2022/05/07 00:56:48;;;;;;;;;;;25.00;41.00;;;;;;5018284;28;19929;-71
2022/05/07 00:59:16;;;;;;;;;;;25.00;41.00;;;;;;5017645;28;19929;-71
2022/05/07 01:01:43;;;;;;;;;;;25.00;41.00;;;;;;5017985;28;19932;-71
2022/05/07 01:04:11;;;;;;;;;;;25.00;41.00;;;;;;5017686;28;19926;-71
2022/05/07 01:06:38;;;;;;;;;;;25.00;41.00;;;;;;5033067;28;19953;-71
2022/05/07 01:09:05;;;;;;;;;;;25.00;41.10;;;;;;5017127;28;19929;-71
2022/05/07 01:11:33;;;;;;;;;;;25.00;41.10;;;;;;5017914;28;19988;-71
2022/05/07 01:14:01;;;;;;;;;;;25.00;41.10;;;;;;5017980;28;19937;-71
2022/05/07 01:16:28;;;;;;;;;;;25.00;41.10;;;;;;5017584;28;19929;-71
2022/05/07 01:18:55;;;;;;;;;;;24.90;41.00;;;;;;5016504;28;19933;-71
2022/05/07 01:21:22;;;;;;;;;;;25.00;41.10;;;;;;5017436;28;19926;-71
2022/05/07 01:23:49;;;;;;;;;;;25.00;41.10;;;;;;5017634;28;19980;-70
2022/05/07 01:26:20;;;;;;;;;;;25.00;41.10;;;;;;5017504;28;19972;-71
2022/05/07 01:28:47;;;;;;;;;;;24.90;41.10;;;;;;5017803;28;19960;-71
2022/05/07 01:31:14;;;;;;;;;;;24.90;41.10;;;;;;5017730;28;19929;-71
2022/05/07 01:33:41;;;;;;;;;;;24.90;41.10;;;;;;5017417;28;20373;-71
2022/05/07 01:36:11;;;;;;;;;;;24.90;41.10;;;;;;5032610;28;19929;-71
2022/05/07 01:38:38;;;;;;;;;;;24.90;41.10;;;;;;5017180;28;19936;-71
2022/05/07 01:41:05;;;;;;;;;;;24.90;41.10;;;;;;5017329;28;19952;-71
2022/05/07 01:43:35;;;;;;;;;;;24.90;41.10;;;;;;5017346;28;19980;-71
2022/05/07 01:46:02;;;;;;;;;;;24.90;41.10;;;;;;5017319;28;19989;-71
2022/05/07 01:48:29;;;;;;;;;;;24.90;41.10;;;;;;5017289;28;19955;-71
2022/05/07 01:50:56;;;;;;;;;;;24.90;41.10;;;;;;5017341;28;19972;-71
2022/05/07 01:53:23;;;;;;;;;;;24.90;41.10;;;;;;5017395;28;19925;-71
2022/05/07 01:55:50;;;;;;;;;;;24.90;41.20;;;;;;5017128;28;19926;-71
2022/05/07 01:58:17;;;;;;;;;;;24.90;41.20;;;;;;5017495;28;19930;-70
2022/05/07 02:00:44;;;;;;;;;;;24.90;41.20;;;;;;5017417;28;19934;-71
2022/05/07 02:03:11;;;;;;;;;;;24.90;41.20;;;;;;5017605;28;19932;-70
2022/05/07 02:05:39;;;;;;;;;;;24.90;41.20;;;;;;5017434;28;19960;-70
2022/05/07 02:08:06;;;;;;;;;;;24.90;41.20;;;;;;5017650;28;20333;-71
2022/05/07 02:10:33;;;;;;;;;;;24.90;41.20;;;;;;5017184;28;20325;-74
2022/05/07 02:13:01;;;;;;;;;;;24.90;41.20;;;;;;5000082;28;19926;-71
2022/05/07 02:15:29;;;;;;;;;;;24.90;41.20;;;;;;5017406;28;19949;-71
2022/05/07 02:17:56;;;;;;;;;;;24.90;41.20;;;;;;5017268;28;19933;-71
2022/05/07 02:20:23;;;;;;;;;;;24.90;41.20;;;;;;5019006;28;19926;-71
2022/05/07 02:22:55;;;;;;;;;;;24.90;41.20;;;;;;5021075;28;19929;-71
2022/05/07 02:25:23;;;;;;;;;;;24.90;41.20;;;;;;5020636;28;19926;-71
2022/05/07 02:27:50;;;;;;;;;;;24.90;41.20;;;;;;5021630;28;19949;-71
2022/05/07 02:30:19;;;;;;;;;;;24.90;41.20;;;;;;5020642;28;19972;-71
2022/05/07 02:32:46;;;;;;;;;;;24.90;41.20;;;;;;5020741;28;20366;-71
2022/05/07 02:35:14;;;;;;;;;;;24.90;41.20;;;;;;5020568;28;19926;-71
2022/05/07 02:37:41;;;;;;;;;;;24.90;41.20;;;;;;5020591;28;19929;-71
2022/05/07 02:40:08;;;;;;;;;;;24.90;41.20;;;;;;5020332;28;19926;-71
2022/05/07 02:42:42;;;;;;;;;;;24.90;41.20;;;;;;5020586;28;19929;-71
2022/05/07 02:45:10;;;;;;;;;;;24.90;41.20;;;;;;5020448;28;20293;-71
2022/05/07 02:47:37;;;;;;;;;;;24.90;41.20;;;;;;5020441;28;19930;-71
2022/05/07 02:50:05;;;;;;;;;;;24.90;41.20;;;;;;5020030;28;20332;-71
2022/05/07 02:52:35;;;;;;;;;;;24.90;41.20;;;;;;5020173;28;19925;-71
2022/05/07 02:55:03;;;;;;;;;;;24.90;41.20;;;;;;5020048;28;19980;-71
2022/05/07 02:57:31;;;;;;;;;;;24.90;41.20;;;;;;5020346;28;19925;-71
2022/05/07 02:59:58;;;;;;;;;;;24.90;41.30;;;;;;5020382;28;19933;-70
2022/05/07 03:02:25;;;;;;;;;;;24.80;41.20;;;;;;5020312;28;20371;-71
2022/05/07 03:04:53;;;;;;;;;;;24.80;41.20;;;;;;5019943;28;19926;-71
2022/05/07 03:07:20;;;;;;;;;;;24.80;41.20;;;;;;5019880;28;19929;-71
2022/05/07 03:09:47;;;;;;;;;;;24.80;41.30;;;;;;5002554;28;19949;-71
2022/05/07 03:12:14;;;;;;;;;;;24.80;41.30;;;;;;5019841;28;19930;-71
2022/05/07 03:14:41;;;;;;;;;;;24.80;41.30;;;;;;5019740;28;19925;-71
2022/05/07 03:17:08;;;;;;;;;;;24.80;41.30;;;;;;5020132;28;19973;-71
2022/05/07 03:19:35;;;;;;;;;;;24.80;41.30;;;;;;5002448;28;19932;-71
2022/05/07 03:22:02;;;;;;;;;;;24.80;41.30;;;;;;5019805;28;19926;-70
2022/05/07 03:24:30;;;;;;;;;;;24.80;41.30;;;;;;5019808;28;19948;-71
2022/05/07 03:26:57;;;;;;;;;;;24.80;41.30;;;;;;5019867;28;20258;-71
2022/05/07 03:29:24;;;;;;;;;;;24.80;41.30;;;;;;5019538;28;19936;-71
2022/05/07 03:31:51;;;;;;;;;;;24.80;41.30;;;;;;5018761;28;19926;-71
2022/05/07 03:34:18;;;;;;;;;;;24.80;41.30;;;;;;5019567;28;19926;-71
2022/05/07 03:36:45;;;;;;;;;;;24.80;41.30;;;;;;5019338;28;19925;-71
2022/05/07 03:39:15;;;;;;;;;;;24.80;41.30;;;;;;5019406;28;19926;-71
2022/05/07 03:41:43;;;;;;;;;;;24.80;41.30;;;;;;5019446;28;19925;-71
2022/05/07 03:44:10;;;;;;;;;;;24.80;41.30;;;;;;5019323;28;20436;-71
2022/05/07 03:46:37;;;;;;;;;;;24.80;41.30;;;;;;5019335;28;19996;-71
2022/05/07 03:49:04;;;;;;;;;;;24.80;41.30;;;;;;5019243;28;19925;-71
2022/05/07 03:53:29;;;;;;;;;;;24.80;41.30;;;;;;5019270;28;19949;-71
2022/05/07 03:54:17;;;;;;;;;;;24.80;41.30;;;;;;5019225;28;19929;-71
2022/05/07 03:56:45;;;;;;;;;;;24.80;41.30;;;;;;5019191;28;19984;-71
2022/05/07 03:59:12;;;;;;;;;;;24.80;41.30;;;;;;5019191;28;20366;-71
2022/05/07 04:01:39;;;;;;;;;;;24.80;41.30;;;;;;5018946;28;19932;-70
2022/05/07 04:04:06;;;;;;;;;;;24.80;41.30;;;;;;5019109;28;20305;-71
2022/05/07 04:06:33;;;;;;;;;;;24.80;41.30;;;;;;5019122;28;19926;-71
2022/05/07 04:09:01;;;;;;;;;;;24.80;41.30;;;;;;5018698;28;20416;-71
2022/05/07 04:11:28;;;;;;;;;;;24.80;41.30;;;;;;5019021;28;19933;-70
2022/05/07 04:13:55;;;;;;;;;;;24.80;41.30;;;;;;5018943;28;20309;-71
2022/05/07 04:16:22;;;;;;;;;;;24.80;41.30;;;;;;5018593;28;19980;-71
2022/05/07 04:18:51;;;;;;;;;;;24.80;41.30;;;;;;5018566;28;19969;-71
2022/05/07 04:21:18;;;;;;;;;;;24.80;41.30;;;;;;5018724;28;19965;-71
2022/05/07 04:23:45;;;;;;;;;;;24.80;41.20;;;;;;5018530;28;19984;-71
2022/05/07 04:26:12;;;;;;;;;;;24.80;41.20;;;;;;5018528;28;20329;-71
2022/05/07 04:28:40;;;;;;;;;;;24.80;41.20;;;;;;5018561;28;19988;-71
2022/05/07 04:31:07;;;;;;;;;;;24.80;41.20;;;;;;5018527;28;19926;-71
2022/05/07 04:33:34;;;;;;;;;;;24.90;41.80;;;;;;5018734;28;20336;-71
2022/05/07 04:36:01;;;;;;;;;;;24.90;41.20;;;;;;5018520;28;19987;-71
2022/05/07 04:38:28;;;;;;;;;;;24.90;41.20;;;;;;5018444;28;19926;-71
2022/05/07 04:40:55;;;;;;;;;;;24.90;41.20;;;;;;5018143;28;19929;-71
2022/05/07 04:43:22;;;;;;;;;;;24.90;41.20;;;;;;5017490;28;19930;-71
2022/05/07 04:45:49;;;;;;;;;;;24.90;41.20;;;;;;5018180;28;19932;-70
2022/05/07 04:48:22;;;;;;;;;;;24.90;41.20;;;;;;5018134;28;19925;-71
2022/05/07 04:50:49;;;;;;;;;;;24.90;41.20;;;;;;5018091;28;19929;-71
2022/05/07 04:53:16;;;;;;;;;;;24.90;41.20;;;;;;5017972;28;19980;-71
2022/05/07 04:55:43;;;;;;;;;;;24.80;41.10;;;;;;5017835;28;19925;-71
2022/05/07 04:58:10;;;;;;;;;;;24.90;41.20;;;;;;5018274;28;19997;-70
2022/05/07 05:00:37;;;;;;;;;;;24.90;41.20;;;;;;5017915;28;19929;-71
2022/05/07 05:03:04;;;;;;;;;;;24.90;41.20;;;;;;5000719;28;19926;-70
2022/05/07 05:05:31;;;;;;;;;;;24.90;41.10;;;;;;5017977;28;20274;-71
2022/05/07 05:07:58;;;;;;;;;;;24.90;41.20;;;;;;5000419;28;19926;-71
2022/05/07 05:10:26;;;;;;;;;;;24.90;41.30;;;;;;5017865;28;19976;-71
2022/05/07 05:12:53;;;;;;;;;;;24.90;41.30;;;;;;5017777;28;19930;-71
2022/05/07 05:15:20;;;;;;;;;;;24.90;41.40;;;;;;5017595;28;19925;-71
2022/05/07 05:17:47;;;;;;;;;;;24.90;41.40;;;;;;5017868;28;19949;-71
2022/05/07 05:20:15;;;;;;;;;;;24.90;41.40;;;;;;5017882;28;19932;-71
2022/05/07 05:22:47;;;;;;;;;;;24.90;41.50;;;;;;5017605;28;19926;-71
2022/05/07 05:25:15;;;;;;;;;;;24.90;41.50;;;;;;5017744;28;19925;-71
2022/05/07 05:27:42;;;;;;;;;;;24.90;41.50;;;;;;5017945;28;19930;-71
2022/05/07 05:30:09;;;;;;;;;;;24.90;41.50;;;;;;5017822;28;19929;-71
2022/05/07 05:32:36;;;;;;;;;;;24.90;41.50;;;;;;5017722;28;19925;-71
2022/05/07 05:35:04;;;;;;;;;;;24.90;41.50;;;;;;5017378;28;19925;-71
2022/05/07 05:37:31;;;;;;;;;;;24.90;41.50;;;;;;5032777;28;19933;-71
2022/05/07 05:39:58;;;;;;;;;;;24.90;41.50;;;;;;5017376;28;19926;-71
2022/05/07 05:42:25;;;;;;;;;;;24.90;41.60;;;;;;5017482;28;19938;-71
2022/05/07 05:44:52;;;;;;;;;;;24.90;41.60;;;;;;4999796;28;19956;-71
2022/05/07 05:47:19;;;;;;;;;;;24.90;41.60;;;;;;5017356;28;19925;-71
2022/05/07 05:49:46;;;;;;;;;;;24.90;41.60;;;;;;5017093;28;19925;-71
2022/05/07 05:52:13;;;;;;;;;;;25.00;41.70;;;;;;5017543;28;19926;-71
2022/05/07 05:54:40;;;;;;;;;;;25.00;41.70;;;;;;5018052;28;19926;-71
2022/05/07 05:57:13;;;;;;;;;;;24.90;41.70;;;;;;5005073;28;19930;-71
2022/05/07 05:59:40;;;;;;;;;;;25.00;41.70;;;;;;5020947;28;20424;-71
2022/05/07 06:02:07;;;;;;;;;;;25.00;41.70;;;;;;5021339;28;19933;-71
2022/05/07 06:04:34;;;;;;;;;;;25.00;41.80;;;;;;5021319;28;20373;-71
2022/05/07 06:07:01;;;;;;;;;;;25.10;41.80;;;;;;5020960;28;19972;-71
2022/05/07 06:09:28;;;;;;;;;;;25.10;41.90;;;;;;5021317;28;20270;-71
2022/05/07 06:11:57;;;;;;;;;;;25.10;41.90;;;;;;5020954;28;19926;-71
2022/05/07 06:14:24;;;;;;;;;;;25.10;41.90;;;;;;5020883;28;19926;-71
2022/05/07 06:16:51;;;;;;;;;;;25.10;41.90;;;;;;5020861;28;19925;-71
2022/05/07 06:19:18;;;;;;;;;;;25.10;41.80;;;;;;5021026;28;20396;-71
2022/05/07 06:21:45;;;;;;;;;;;25.20;41.90;;;;;;5020919;28;19932;-71
2022/05/07 06:29:45;;;;;;;;;;;25.20;41.80;;;;;;5021088;28;20297;-71
2022/05/07 06:32:13;;;;;;;;;;;25.30;41.80;;;;;;5003147;28;19980;-71
2022/05/07 06:34:41;;;;;;;;;;;25.30;41.80;;;;;;5020802;28;19925;-71
2022/05/07 06:37:08;;;;;;;;;;;25.30;41.80;;;;;;5003252;28;19980;-71
2022/05/07 06:39:35;;;;;;;;;;;25.30;41.70;;;;;;5020524;28;19926;-71
2022/05/07 06:42:02;;;;;;;;;;;25.40;41.80;;;;;;5020743;28;19972;-71
2022/05/07 06:44:29;;;;;;;;;;;25.40;41.80;;;;;;5020449;28;20365;-71
2022/05/07 06:46:57;;;;;;;;;;;25.40;41.80;;;;;;5020260;28;19925;-71
2022/05/07 06:49:24;;;;;;;;;;;25.40;41.80;;;;;;5020355;28;19933;-71
2022/05/07 06:51:51;;;;;;;;;;;25.40;41.80;;;;;;5020559;28;19988;-71
2022/05/07 06:54:18;;;;;;;;;;;25.40;41.80;;;;;;5020402;28;20279;-71
2022/05/07 06:56:47;;;;;;;;;;;25.40;41.80;;;;;;5020462;28;19930;-71
2022/05/07 06:59:14;;;;;;;;;;;25.40;41.80;;;;;;5019977;28;19932;-71
2022/05/07 07:01:41;;;;;;;;;;;25.40;41.80;;;;;;5019969;28;20377;-71
2022/05/07 07:04:08;;;;;;;;;;;25.50;41.90;;;;;;5020305;28;19925;-71
2022/05/07 07:06:36;;;;;;;;;;;25.40;41.80;;;;;;5018913;28;19941;-71
2022/05/07 07:09:03;;;;;;;;;;;25.50;41.80;;;;;;5019936;28;20377;-71
2022/05/07 07:11:31;;;;;;;;;;;25.50;41.80;;;;;;5020060;28;19932;-71
2022/05/07 07:13:58;;;;;;;;;;;25.60;41.90;;;;;;5019888;28;20377;-71
2022/05/07 07:16:25;;;;;;;;;;;25.60;41.90;;;;;;5019929;28;20340;-72
2022/05/07 07:18:52;;;;;;;;;;;25.70;41.90;;;;;;5020170;28;19929;-71
2022/05/07 07:21:19;;;;;;;;;;;25.70;41.90;;;;;;5019490;28;20436;-71
2022/05/07 07:23:46;;;;;;;;;;;25.70;41.80;;;;;;5020073;28;19929;-72
2022/05/07 07:26:13;;;;;;;;;;;25.80;41.80;;;;;;5019383;28;19942;-71
2022/05/07 07:28:40;;;;;;;;;;;25.80;41.70;;;;;;5019888;28;19983;-71
2022/05/07 07:31:10;;;;;;;;;;;25.80;41.70;;;;;;5019372;28;20366;-71
2022/05/07 07:33:38;;;;;;;;;;;25.90;41.60;;;;;;5019482;28;20393;-71
2022/05/07 07:36:06;;;;;;;;;;;26.00;41.60;;;;;;5019417;28;19929;-71
2022/05/07 07:38:34;;;;;;;;;;;26.00;41.60;;;;;;5019408;28;19973;-71
2022/05/07 07:41:02;;;;;;;;;;;26.00;41.50;;;;;;5019334;28;19925;-72
2022/05/07 07:43:29;;;;;;;;;;;26.00;41.40;;;;;;5019519;28;19926;-71
2022/05/07 07:48:46;;;;;;;;;;;26.10;41.40;;;;;;5019554;28;19925;-71
2022/05/07 07:51:13;;;;;;;;;;;26.10;41.30;;;;;;5019299;28;19933;-71
2022/05/07 07:53:41;;;;;;;;;;;26.10;41.20;;;;;;5019255;28;19948;-71
2022/05/07 07:56:08;;;;;;;;;;;26.20;41.30;;;;;;5019363;28;19949;-71
2022/05/07 07:58:35;;;;;;;;;;;26.20;41.20;;;;;;5018979;28;20373;-72
2022/05/07 08:01:02;;;;;;;;;;;26.30;41.20;;;;;;5019077;28;19929;-71
2022/05/07 08:03:29;;;;;;;;;;;26.30;41.20;;;;;;5019111;28;19926;-71
2022/05/07 08:05:57;;;;;;;;;;;26.30;41.10;;;;;;5018863;28;19976;-71
2022/05/07 08:14:00;;;;;;;;;;;26.40;41.10;;;;;;5018694;28;19930;-71
2022/05/07 08:16:27;;;;;;;;;;;26.40;41.00;;;;;;5018912;28;20501;-71
2022/05/07 08:18:54;;;;;;;;;;;26.40;41.00;;;;;;5018393;28;19931;-72
2022/05/07 08:21:21;;;;;;;;;;;26.40;41.00;;;;;;5018800;28;19972;-71
2022/05/07 08:23:49;;;;;;;;;;;26.40;41.00;;;;;;5018581;28;19976;-71
2022/05/07 08:26:16;;;;;;;;;;;26.40;41.00;;;;;;5001573;28;19968;-71
2022/05/07 08:28:46;;;;;;;;;;;26.40;41.00;;;;;;5017832;28;20486;-71
2022/05/07 08:31:13;;;;;;;;;;;26.40;41.00;;;;;;5034017;28;20318;-72
2022/05/07 08:33:41;;;;;;;;;;;26.40;40.90;;;;;;5018591;28;20387;-71
2022/05/07 08:36:09;;;;;;;;;;;26.40;40.90;;;;;;5018538;28;19988;-71
2022/05/07 08:38:36;;;;;;;;;;;26.40;40.90;;;;;;5018570;28;20151;-71
2022/05/07 08:41:03;;;;;;;;;;;26.40;40.90;;;;;;5018342;28;20332;-71
2022/05/07 08:43:32;;;;;;;;;;;26.40;40.90;;;;;;5018381;28;19925;-71
2022/05/07 08:45:59;;;;;;;;;;;26.40;40.90;;;;;;5017971;28;19932;-71
2022/05/07 08:48:27;;;;;;;;;;;26.40;40.90;;;;;;5001157;28;19999;-71
2022/05/07 08:50:54;;;;;;;;;;;26.50;40.90;;;;;;5017975;28;19925;-71
2022/05/07 08:53:21;;;;;;;;;;;26.50;40.90;;;;;;5018340;28;19932;-71
2022/05/07 08:55:54;;;;;;;;;;;26.50;40.90;;;;;;5018006;28;20350;-71
2022/05/07 08:58:22;;;;;;;;;;;26.50;40.90;;;;;;5018312;28;19929;-71
2022/05/07 09:00:49;;;;;;;;;;;26.50;41.00;;;;;;5017691;28;19976;-71
2022/05/07 09:03:16;;;;;;;;;;;26.50;40.90;;;;;;5018550;28;20372;-71
2022/05/07 09:05:44;;;;;;;;;;;26.50;40.90;;;;;;5017837;28;19933;-71
2022/05/07 09:08:12;;;;;;;;;;;26.50;40.80;;;;;;5018013;28;19925;-71
2022/05/07 09:10:40;;;;;;;;;;;26.60;40.90;;;;;;5017702;28;19925;-71
2022/05/07 09:13:15;;;;;;;;;;;26.50;40.80;;;;;;5017726;28;20447;-71
2022/05/07 09:15:50;;;;;;;;;;;26.60;40.80;;;;;;5018049;28;19925;-71
2022/05/07 09:18:19;;;;;;;;;;;26.60;40.80;;;;;;5017826;28;20028;-71
2022/05/07 09:21:17;;;;;;;;;;;26.60;40.70;;;;;;5017577;28;19925;-71
2022/05/07 09:23:45;;;;;;;;;;;26.70;40.80;;;;;;5017570;28;20013;-71
2022/05/07 09:26:24;;;;;;;;;;;26.70;40.70;;;;;;5000222;28;19926;-72
2022/05/07 09:28:52;;;;;;;;;;;26.70;40.70;;;;;;5000162;28;19926;-71
2022/05/07 09:31:26;;;;;;;;;;;26.70;40.70;;;;;;5017254;28;19926;-71
2022/05/07 09:33:54;;;;;;;;;;;26.70;40.70;;;;;;5017451;28;19925;-71
2022/05/07 09:36:24;;;;;;;;;;;26.70;40.70;;;;;;5033303;28;20321;-72
2022/05/07 09:38:59;;;;;;;;;;;26.70;40.70;;;;;;5017616;28;19925;-71
2022/05/07 09:41:26;;;;;;;;;;;26.70;40.60;;;;;;5032259;28;19929;-72
2022/05/07 09:43:53;;;;;;;;;;;26.70;40.60;;;;;;5017431;28;20369;-71
2022/05/07 09:46:20;;;;;;;;;;;26.80;40.70;;;;;;5017349;28;19930;-71
2022/05/07 09:48:47;;;;;;;;;;;26.80;40.70;;;;;;5017540;28;19936;-71
2022/05/07 09:51:19;;;;;;;;;;;26.80;41.20;;;;;;5017646;28;19967;-71
2022/05/07 09:59:20;;;;;;;;;;;26.80;40.50;;;;;;5017639;28;19948;-71
2022/05/07 10:01:56;;;;;;;;;;;26.90;40.60;;;;;;5017485;28;19933;-71
2022/05/07 10:04:43;;;;;;;;;;;26.90;40.50;;;;;;5018027;28;19929;-71
2022/05/07 10:07:18;;;;;;;;;;;26.90;40.40;;;;;;5017008;28;20312;-71
2022/05/07 10:10:05;;;;;;;;;;;26.90;40.40;;;;;;5032701;28;19929;-71
2022/05/07 10:12:32;;;;;;;;;;;26.90;40.40;;;;;;5017068;28;19926;-71
2022/05/07 10:15:07;;;;;;;;;;;26.90;40.40;;;;;;5017463;28;19926;-71
2022/05/07 10:17:35;;;;;;;;;;;26.90;40.40;;;;;;5017300;28;19929;-71
2022/05/07 10:20:08;;;;;;;;;;;26.90;40.30;;;;;;5017380;28;19926;-71
2022/05/07 10:22:35;;;;;;;;;;;26.90;40.30;;;;;;5016996;28;19926;-71
2022/05/07 10:25:04;;;;;;;;;;;26.90;40.30;;;;;;4999679;28;19976;-71
2022/05/07 10:27:38;;;;;;;;;;;26.90;40.30;;;;;;5017207;28;20329;-71
2022/05/07 10:30:13;;;;;;;;;;;26.90;40.30;;;;;;5016876;28;19925;-71
2022/05/07 10:32:57;;;;;;;;;;;26.90;40.40;;;;;;5016769;28;20377;-72
2022/05/07 10:35:44;;;;;;;;;;;26.90;40.40;;;;;;5016825;28;19930;-71
2022/05/07 10:38:12;;;;;;;;;;;26.90;40.40;;;;;;5017251;28;19996;-71
2022/05/07 10:40:50;;;;;;;;;;;26.90;40.40;;;;;;5017059;28;19949;-71
2022/05/07 10:43:25;;;;;;;;;;;26.90;40.40;;;;;;5020740;28;19952;-71
2022/05/07 10:45:59;;;;;;;;;;;26.90;40.60;;;;;;5020647;28;19980;-71
2022/05/07 10:48:26;;;;;;;;;;;26.90;40.40;;;;;;5020445;28;19972;-71
2022/05/07 10:51:00;;;;;;;;;;;26.90;40.40;;;;;;5020467;28;19925;-71
2022/05/07 10:53:38;;;;;;;;;;;26.90;40.50;;;;;;5020694;28;19930;-71
2022/05/07 10:56:10;;;;;;;;;;;26.90;40.50;;;;;;5003040;28;19925;-71
2022/05/07 10:58:37;;;;;;;;;;;26.90;40.50;;;;;;5020068;28;20432;-71
2022/05/07 11:01:05;;;;;;;;;;;26.90;40.50;;;;;;5019891;28;19925;-71
2022/05/07 11:03:37;;;;;;;;;;;26.90;40.50;;;;;;5020049;28;19932;-71
2022/05/07 11:06:04;;;;;;;;;;;26.90;40.50;;;;;;5019928;28;19980;-71
2022/05/07 11:08:31;;;;;;;;;;;26.90;40.50;;;;;;5020254;28;19930;-71
2022/05/07 11:11:07;;;;;;;;;;;26.90;40.60;;;;;;5020193;28;19925;-71
2022/05/07 11:13:47;;;;;;;;;;;26.90;40.60;;;;;;5019905;28;19972;-71
2022/05/07 11:16:16;;;;;;;;;;;26.90;40.60;;;;;;5020010;28;19940;-72
2022/05/07 11:18:45;;;;;;;;;;;26.90;40.50;;;;;;5020229;28;19929;-72
2022/05/07 11:21:13;;;;;;;;;;;26.90;40.50;;;;;;5019518;28;19925;-72
2022/05/07 11:23:43;;;;;;;;;;;26.90;40.50;;;;;;5002658;28;19926;-71
2022/05/07 11:26:17;;;;;;;;;;;27.00;40.50;;;;;;5019656;28;19972;-71
2022/05/07 11:28:44;;;;;;;;;;;27.00;40.50;;;;;;5019844;28;19933;-71
2022/05/07 11:31:14;;;;;;;;;;;27.00;40.40;;;;;;5019618;28;19949;-71
2022/05/07 11:33:42;;;;;;;;;;;27.00;40.40;;;;;;5019622;28;19925;-71
2022/05/07 11:36:09;;;;;;;;;;;27.00;40.30;;;;;;5019617;28;19925;-71
2022/05/07 11:38:36;;;;;;;;;;;27.10;40.30;;;;;;5016831;28;19953;-71
2022/05/07 11:41:11;;;;;;;;;;;27.10;40.30;;;;;;5014179;28;19972;-71
2022/05/07 11:46:25;;;;;;;;;;;27.10;40.20;;;;;;5019297;28;19926;-71
2022/05/07 11:48:53;;;;;;;;;;;27.20;40.20;;;;;;5019428;28;19925;-72
2022/05/07 11:51:25;;;;;;;;;;;27.20;40.20;;;;;;5019145;28;19925;-71
2022/05/07 11:53:52;;;;;;;;;;;27.20;40.10;;;;;;5018792;28;19996;-72
2022/05/07 11:56:19;;;;;;;;;;;27.20;40.40;;;;;;5019164;28;19925;-72
2022/05/07 11:58:48;;;;;;;;;;;27.20;40.20;;;;;;5019176;28;19926;-71
2022/05/07 12:01:20;;;;;;;;;;;27.20;40.20;;;;;;5019310;28;19954;-71
2022/05/07 12:03:51;;;;;;;;;;;27.20;40.20;;;;;;5018921;28;19925;-71
2022/05/07 12:06:27;;;;;;;;;;;27.20;40.10;;;;;;5018968;28;19933;-72
2022/05/07 12:08:55;;;;;;;;;;;27.20;40.10;;;;;;5034044;28;19925;-71
2022/05/07 12:11:22;;;;;;;;;;;27.20;40.10;;;;;;5019024;28;19980;-71
2022/05/07 12:13:49;;;;;;;;;;;27.20;40.10;;;;;;5018663;28;19972;-72
2022/05/07 12:19:03;;;;;;;;;;;27.20;40.10;;;;;;5018814;28;19932;-72
2022/05/07 12:29:52;;;;;;;;;;;27.20;39.90;;;;;;5018520;28;19925;-71
2022/05/07 12:32:20;;;;;;;;;;;27.30;40.00;;;;;;5018428;28;19925;-71
2022/05/07 12:34:47;;;;;;;;;;;27.30;39.90;;;;;;5018644;28;19964;-72
2022/05/07 12:37:15;;;;;;;;;;;27.30;39.90;;;;;;5018554;28;20321;-72
2022/05/07 12:39:42;;;;;;;;;;;27.30;39.80;;;;;;5018157;28;19981;-72
2022/05/07 12:42:11;;;;;;;;;;;27.30;39.80;;;;;;5033455;28;19925;-71
2022/05/07 12:44:41;;;;;;;;;;;27.40;39.80;;;;;;5018314;28;19930;-72
2022/05/07 12:47:08;;;;;;;;;;;27.40;39.80;;;;;;5018237;28;19929;-71
2022/05/07 12:49:35;;;;;;;;;;;27.40;39.80;;;;;;5018093;28;19933;-71
2022/05/07 12:52:03;;;;;;;;;;;27.40;39.80;;;;;;5018163;28;19972;-72
2022/05/07 12:54:30;;;;;;;;;;;27.40;39.80;;;;;;5017971;28;19926;-71
2022/05/07 12:57:04;;;;;;;;;;;27.40;39.80;;;;;;5018233;28;19932;-71
2022/05/07 12:59:31;;;;;;;;;;;27.40;39.80;;;;;;5018031;28;19925;-72
2022/05/07 13:01:58;;;;;;;;;;;27.40;39.80;;;;;;5000608;28;19961;-71
2022/05/07 13:04:26;;;;;;;;;;;27.40;39.80;;;;;;5017262;28;19930;-71
2022/05/07 13:06:53;;;;;;;;;;;27.40;39.70;;;;;;5018084;28;19925;-71
2022/05/07 13:09:20;;;;;;;;;;;27.40;39.70;;;;;;5018119;28;19925;-71
2022/05/07 13:12:10;;;;;;;;;;;27.40;39.70;;;;;;5018381;28;19984;-71
2022/05/07 13:14:37;;;;;;;;;;;27.40;39.60;;;;;;5017781;28;19925;-72
2022/05/07 13:17:04;;;;;;;;;;;27.40;39.60;;;;;;5018254;28;19926;-72
2022/05/07 13:19:31;;;;;;;;;;;27.50;39.70;;;;;;5017835;28;20317;-72
2022/05/07 13:21:58;;;;;;;;;;;27.40;39.50;;;;;;5017783;28;20000;-72
2022/05/07 13:24:25;;;;;;;;;;;27.50;39.60;;;;;;5017690;28;19929;-72
2022/05/07 13:26:52;;;;;;;;;;;27.50;39.60;;;;;;5017652;28;19925;-72
2022/05/07 13:29:19;;;;;;;;;;;27.40;39.50;;;;;;5017930;28;19996;-71
2022/05/07 13:31:46;;;;;;;;;;;27.50;39.60;;;;;;5017501;28;19930;-71
2022/05/07 13:34:14;;;;;;;;;;;27.50;39.60;;;;;;5017580;28;20366;-72
2022/05/07 13:36:41;;;;;;;;;;;27.50;39.60;;;;;;5017615;28;19933;-72
2022/05/07 13:39:08;;;;;;;;;;;27.50;39.60;;;;;;5017314;28;19937;-72
2022/05/07 13:41:35;;;;;;;;;;;27.40;39.60;;;;;;5017513;28;19926;-72
2022/05/07 13:44:02;;;;;;;;;;;27.40;39.60;;;;;;5017412;28;19925;-72
2022/05/07 13:46:29;;;;;;;;;;;27.40;39.60;;;;;;5017264;28;20381;-72
2022/05/07 13:48:56;;;;;;;;;;;27.40;39.60;;;;;;5017633;28;20460;-71
2022/05/07 13:51:24;;;;;;;;;;;27.40;39.60;;;;;;5017647;28;20377;-72
2022/05/07 13:53:51;;;;;;;;;;;27.40;39.60;;;;;;5017280;28;19925;-72
2022/05/07 13:56:18;;;;;;;;;;;27.40;39.60;;;;;;5017559;28;19926;-72
2022/05/07 13:58:45;;;;;;;;;;;27.40;39.70;;;;;;5017394;28;19980;-72
2022/05/07 14:01:12;;;;;;;;;;;27.40;39.60;;;;;;5017187;28;19926;-71
2022/05/07 14:03:39;;;;;;;;;;;27.40;39.60;;;;;;5017480;28;19973;-71
2022/05/07 14:06:06;;;;;;;;;;;27.40;39.60;;;;;;5000118;28;19925;-72
2022/05/07 14:08:33;;;;;;;;;;;27.40;39.60;;;;;;5017230;28;19979;-72
2022/05/07 14:11:01;;;;;;;;;;;27.40;39.60;;;;;;5016974;28;19925;-72
2022/05/07 14:13:28;;;;;;;;;;;27.40;39.60;;;;;;5017522;28;20138;-71
2022/05/07 14:15:55;;;;;;;;;;;27.40;39.60;;;;;;5018284;28;19926;-72
2022/05/07 14:18:22;;;;;;;;;;;27.40;39.60;;;;;;5021038;28;19926;-72
2022/05/07 14:20:50;;;;;;;;;;;27.40;39.60;;;;;;5020840;28;19933;-72
2022/05/07 14:23:17;;;;;;;;;;;27.40;39.60;;;;;;5021076;28;19925;-72
2022/05/07 14:25:45;;;;;;;;;;;27.40;39.70;;;;;;5020684;28;19941;-72
2022/05/07 14:28:12;;;;;;;;;;;27.40;39.60;;;;;;5020831;28;19925;-71
2022/05/07 14:30:39;;;;;;;;;;;27.40;39.60;;;;;;5003202;28;19929;-72
2022/05/07 14:33:08;;;;;;;;;;;27.40;39.60;;;;;;5020656;28;19925;-72
2022/05/07 14:35:35;;;;;;;;;;;27.50;39.60;;;;;;5020560;28;19933;-72
2022/05/07 14:38:08;;;;;;;;;;;27.50;39.60;;;;;;5020580;28;20369;-72
2022/05/07 14:40:35;;;;;;;;;;;27.50;39.60;;;;;;5020713;28;20289;-71
2022/05/07 14:43:03;;;;;;;;;;;27.50;39.60;;;;;;5020379;28;19925;-71
2022/05/07 14:45:30;;;;;;;;;;;27.50;39.50;;;;;;5020796;28;19980;-71
2022/05/07 14:47:59;;;;;;;;;;;27.50;39.50;;;;;;5020704;28;19925;-72
2022/05/07 14:50:26;;;;;;;;;;;27.50;39.50;;;;;;5020457;28;19957;-72
2022/05/07 14:52:54;;;;;;;;;;;27.60;39.60;;;;;;5020420;28;19972;-71
2022/05/07 14:55:22;;;;;;;;;;;27.60;39.60;;;;;;5020652;28;19925;-72
2022/05/07 14:57:49;;;;;;;;;;;27.60;39.60;;;;;;5020354;28;19957;-71
2022/05/07 15:00:16;;;;;;;;;;;27.50;39.50;;;;;;5020106;28;19929;-71